sensor_id;sensor_type;location;lat;lon;timestamp;pressure;altitude;pressure_sealevel;temperature;humidity
84116;BME280;74211;52.234;9.860;2024-01-11T00:02:01;102611.97;;;-8.05;83.65
84116;BME280;74211;52.234;9.860;2024-01-11T00:04:31;102609.47;;;-8.07;82.89
84116;BME280;74211;52.234;9.860;2024-01-11T00:07:01;102616.16;;;-8.02;83.68
84116;BME280;74211;52.234;9.860;2024-01-11T00:09:38;102616.22;;;-8.07;83.11
84116;BME280;74211;52.234;9.860;2024-01-11T00:12:09;102628.06;;;-8.11;83.39
84116;BME280;74211;52.234;9.860;2024-01-11T00:14:41;102634.00;;;-8.13;84.98
84116;BME280;74211;52.234;9.860;2024-01-11T00:17:11;102620.44;;;-8.06;86.12
84116;BME280;74211;52.234;9.860;2024-01-11T00:19:42;102627.97;;;-8.03;85.28
84116;BME280;74211;52.234;9.860;2024-01-11T00:22:12;102600.41;;;-8.23;85.88
84116;BME280;74211;52.234;9.860;2024-01-11T00:24:45;102634.59;;;-7.94;85.89
84116;BME280;74211;52.234;9.860;2024-01-11T00:27:15;102633.66;;;-7.87;85.85
84116;BME280;74211;52.234;9.860;2024-01-11T00:29:45;102628.44;;;-7.78;85.07
84116;BME280;74211;52.234;9.860;2024-01-11T00:32:15;102610.94;;;-7.93;84.92
84116;BME280;74211;52.234;9.860;2024-01-11T00:34:45;102631.88;;;-7.79;84.42
84116;BME280;74211;52.234;9.860;2024-01-11T00:37:16;102607.59;;;-7.95;84.22
84116;BME280;74211;52.234;9.860;2024-01-11T00:39:49;102625.19;;;-7.86;84.02
84116;BME280;74211;52.234;9.860;2024-01-11T00:42:19;102621.78;;;-7.82;83.82
84116;BME280;74211;52.234;9.860;2024-01-11T00:44:49;102619.25;;;-7.82;83.89
84116;BME280;74211;52.234;9.860;2024-01-11T00:47:19;102620.94;;;-7.84;83.65
84116;BME280;74211;52.234;9.860;2024-01-11T00:49:49;102573.41;;;-8.22;83.61
84116;BME280;74211;52.234;9.860;2024-01-11T00:52:19;102614.44;;;-8.00;84.05
84116;BME280;74211;52.234;9.860;2024-01-11T00:54:52;102617.81;;;-8.00;83.88
84116;BME280;74211;52.234;9.860;2024-01-11T00:57:22;102586.16;;;-8.30;83.40
84116;BME280;74211;52.234;9.860;2024-01-11T00:59:52;102615.41;;;-8.09;83.66
84116;BME280;74211;52.234;9.860;2024-01-11T01:02:22;102614.59;;;-8.11;83.81
84116;BME280;74211;52.234;9.860;2024-01-11T01:04:52;102602.81;;;-8.14;83.76
84116;BME280;74211;52.234;9.860;2024-01-11T01:07:22;102600.50;;;-8.30;83.93
84116;BME280;74211;52.234;9.860;2024-01-11T01:09:56;102594.75;;;-8.37;85.24
84116;BME280;74211;52.234;9.860;2024-01-11T01:12:26;102605.31;;;-8.12;85.24
84116;BME280;74211;52.234;9.860;2024-01-11T01:14:56;102625.53;;;-8.11;84.52
84116;BME280;74211;52.234;9.860;2024-01-11T01:17:26;102647.41;;;-8.05;84.91
84116;BME280;74211;52.234;9.860;2024-01-11T01:19:56;102632.16;;;-7.99;84.85
84116;BME280;74211;52.234;9.860;2024-01-11T01:22:26;102630.34;;;-7.92;84.42
84116;BME280;74211;52.234;9.860;2024-01-11T01:24:59;102615.25;;;-7.98;83.89
84116;BME280;74211;52.234;9.860;2024-01-11T01:27:29;102609.41;;;-8.04;84.35
84116;BME280;74211;52.234;9.860;2024-01-11T01:30:01;102609.47;;;-8.07;83.75
84116;BME280;74211;52.234;9.860;2024-01-11T01:32:31;102611.25;;;-8.15;83.67
84116;BME280;74211;52.234;9.860;2024-01-11T01:35:02;102604.50;;;-8.14;83.64
84116;BME280;74211;52.234;9.860;2024-01-11T01:37:32;102598.59;;;-8.15;83.80
84116;BME280;74211;52.234;9.860;2024-01-11T01:40:06;102596.91;;;-8.14;83.68
84116;BME280;74211;52.234;9.860;2024-01-11T01:42:41;102601.34;;;-8.31;83.35
84116;BME280;74211;52.234;9.860;2024-01-11T01:45:12;102577.78;;;-8.32;84.00
84116;BME280;74211;52.234;9.860;2024-01-11T01:47:43;102584.44;;;-8.26;83.82
84116;BME280;74211;52.234;9.860;2024-01-11T01:50:14;102597.03;;;-8.22;83.36
84116;BME280;74211;52.234;9.860;2024-01-11T01:52:45;102613.94;;;-8.25;83.86
84116;BME280;74211;52.234;9.860;2024-01-11T02:02:06;102602.81;;;-8.15;84.03
84116;BME280;74211;52.234;9.860;2024-01-11T02:04:37;102604.34;;;-8.02;83.50
84116;BME280;74211;52.234;9.860;2024-01-11T02:07:07;102583.38;;;-8.13;83.93
84116;BME280;74211;52.234;9.860;2024-01-11T02:09:39;102620.47;;;-8.09;84.27
84116;BME280;74211;52.234;9.860;2024-01-11T02:12:10;102631.34;;;-8.01;84.47
84116;BME280;74211;52.234;9.860;2024-01-11T02:14:41;102626.25;;;-7.99;84.54
84116;BME280;74211;52.234;9.860;2024-01-11T02:17:14;102625.38;;;-7.98;83.67
84116;BME280;74211;52.234;9.860;2024-01-11T02:19:44;102613.56;;;-7.98;84.13
84116;BME280;74211;52.234;9.860;2024-01-11T02:22:20;102626.97;;;-7.91;83.98
84116;BME280;74211;52.234;9.860;2024-01-11T02:24:55;102622.91;;;-8.01;83.07
84116;BME280;74211;52.234;9.860;2024-01-11T02:27:25;102592.81;;;-8.23;83.78
84116;BME280;74211;52.234;9.860;2024-01-11T02:29:55;102625.69;;;-8.20;83.47
84116;BME280;74211;52.234;9.860;2024-01-11T02:32:25;102624.69;;;-8.10;83.65
84116;BME280;74211;52.234;9.860;2024-01-11T02:34:55;102596.16;;;-8.21;83.17
84116;BME280;74211;52.234;9.860;2024-01-11T02:37:26;102583.84;;;-8.44;83.26
84116;BME280;74211;52.234;9.860;2024-01-11T02:39:59;102624.09;;;-8.28;83.14
84116;BME280;74211;52.234;9.860;2024-01-11T02:42:30;102617.38;;;-8.29;83.43
84116;BME280;74211;52.234;9.860;2024-01-11T02:45:00;102590.56;;;-8.40;83.65
84116;BME280;74211;52.234;9.860;2024-01-11T02:47:30;102601.41;;;-8.33;83.69
84116;BME280;74211;52.234;9.860;2024-01-11T02:50:00;102597.97;;;-8.29;83.82
84116;BME280;74211;52.234;9.860;2024-01-11T02:52:31;102584.84;;;-8.54;83.22
84116;BME280;74211;52.234;9.860;2024-01-11T02:55:07;102597.22;;;-8.34;83.67
84116;BME280;74211;52.234;9.860;2024-01-11T02:57:37;102602.28;;;-8.34;83.78
84116;BME280;74211;52.234;9.860;2024-01-11T03:00:08;102593.84;;;-8.34;83.06
84116;BME280;74211;52.234;9.860;2024-01-11T03:02:39;102586.47;;;-8.51;84.20
84116;BME280;74211;52.234;9.860;2024-01-11T03:05:09;102574.75;;;-8.55;84.57
84116;BME280;74211;52.234;9.860;2024-01-11T03:07:40;102583.13;;;-8.53;84.32
84116;BME280;74211;52.234;9.860;2024-01-11T03:10:13;102578.81;;;-8.45;84.35
84116;BME280;74211;52.234;9.860;2024-01-11T03:12:43;102578.75;;;-8.41;84.61
84116;BME280;74211;52.234;9.860;2024-01-11T03:15:14;102591.41;;;-8.39;84.66
84116;BME280;74211;52.234;9.860;2024-01-11T03:17:44;102582.13;;;-8.40;84.13
84116;BME280;74211;52.234;9.860;2024-01-11T03:20:14;102588.06;;;-8.43;84.06
84116;BME280;74211;52.234;9.860;2024-01-11T03:22:47;102571.38;;;-8.54;84.03
84116;BME280;74211;52.234;9.860;2024-01-11T03:25:19;102598.09;;;-8.35;84.32
84116;BME280;74211;52.234;9.860;2024-01-11T03:27:49;102602.31;;;-8.35;85.29
84116;BME280;74211;52.234;9.860;2024-01-11T03:30:20;102601.34;;;-8.30;85.24
84116;BME280;74211;52.234;9.860;2024-01-11T03:32:49;102591.28;;;-8.33;85.52
84116;BME280;74211;52.234;9.860;2024-01-11T03:35:20;102576.25;;;-8.42;84.41
84116;BME280;74211;52.234;9.860;2024-01-11T03:37:50;102590.56;;;-8.40;84.20
84116;BME280;74211;52.234;9.860;2024-01-11T03:40:24;102586.34;;;-8.39;83.60
84116;BME280;74211;52.234;9.860;2024-01-11T03:42:54;102578.75;;;-8.41;84.10
84116;BME280;74211;52.234;9.860;2024-01-11T03:45:25;102572.88;;;-8.41;84.26
84116;BME280;74211;52.234;9.860;2024-01-11T03:47:55;102582.97;;;-8.41;83.94
84116;BME280;74211;52.234;9.860;2024-01-11T03:50:25;102595.59;;;-8.36;83.74
84116;BME280;74211;52.234;9.860;2024-01-11T03:52:56;102598.97;;;-8.39;84.05
84116;BME280;74211;52.234;9.860;2024-01-11T03:55:29;102586.38;;;-8.42;85.15
84116;BME280;74211;52.234;9.860;2024-01-11T03:57:59;102613.13;;;-8.29;85.48
84116;BME280;74211;52.234;9.860;2024-01-11T04:00:29;102599.56;;;-8.22;85.94
84116;BME280;74211;52.234;9.860;2024-01-11T04:03:00;102607.88;;;-8.14;84.92
84116;BME280;74211;52.234;9.860;2024-01-11T04:05:31;102616.16;;;-8.02;84.95
84116;BME280;74211;52.234;9.860;2024-01-11T04:08:04;102597.91;;;-8.26;85.04
84116;BME280;74211;52.234;9.860;2024-01-11T04:10:37;102612.84;;;-8.08;84.38
84116;BME280;74211;52.234;9.860;2024-01-11T04:13:07;102598.72;;;-8.22;84.25
84116;BME280;74211;52.234;9.860;2024-01-11T04:15:37;102602.88;;;-8.17;83.96
84116;BME280;74211;52.234;9.860;2024-01-11T04:18:07;102618.94;;;-8.21;83.88
84116;BME280;74211;52.234;9.860;2024-01-11T04:20:37;102577.84;;;-8.35;84.20
84116;BME280;74211;52.234;9.860;2024-01-11T04:23:07;102597.94;;;-8.27;83.97
84116;BME280;74211;52.234;9.860;2024-01-11T04:25:41;102605.53;;;-8.27;84.27
84116;BME280;74211;52.234;9.860;2024-01-11T04:28:11;102600.34;;;-8.18;84.60
84116;BME280;74211;52.234;9.860;2024-01-11T04:30:42;102561.00;;;-8.36;83.79
84116;BME280;74211;52.234;9.860;2024-01-11T04:33:15;102559.16;;;-8.29;84.03
84116;BME280;74211;52.234;9.860;2024-01-11T04:35:45;102575.81;;;-8.15;84.34
84116;BME280;74211;52.234;9.860;2024-01-11T04:38:15;102581.69;;;-8.13;83.66
84116;BME280;74211;52.234;9.860;2024-01-11T04:40:48;102565.88;;;-8.27;83.84
84116;BME280;74211;52.234;9.860;2024-01-11T04:43:18;102551.66;;;-8.32;84.36
84116;BME280;74211;52.234;9.860;2024-01-11T04:45:48;102530.00;;;-8.52;83.76
84116;BME280;74211;52.234;9.860;2024-01-11T04:48:18;102575.25;;;-8.32;85.82
84116;BME280;74211;52.234;9.860;2024-01-11T04:50:49;102567.56;;;-8.26;86.03
84116;BME280;74211;52.234;9.860;2024-01-11T04:53:19;102592.75;;;-8.17;86.23
84116;BME280;74211;52.234;9.860;2024-01-11T04:55:51;102595.94;;;-8.06;85.70
84116;BME280;74211;52.234;9.860;2024-01-11T04:58:22;102583.38;;;-8.13;84.73
84116;BME280;74211;52.234;9.860;2024-01-11T05:00:53;102583.44;;;-8.16;84.90
84116;BME280;74211;52.234;9.860;2024-01-11T05:03:23;102590.94;;;-8.10;84.66
84116;BME280;74211;52.234;9.860;2024-01-11T05:05:53;102594.34;;;-8.11;83.86
84116;BME280;74211;52.234;9.860;2024-01-11T05:08:24;102606.13;;;-8.09;86.05
84116;BME280;74211;52.234;9.860;2024-01-11T05:10:57;102615.25;;;-7.98;86.41
84116;BME280;74211;52.234;9.860;2024-01-11T05:13:27;102609.38;;;-8.00;85.59
84116;BME280;74211;52.234;9.860;2024-01-11T05:15:57;102601.94;;;-8.11;85.53
84116;BME280;74211;52.234;9.860;2024-01-11T05:18:27;102622.91;;;-8.01;85.16
84116;BME280;74211;52.234;9.860;2024-01-11T05:21:01;102637.00;;;-7.85;85.56
84116;BME280;74211;52.234;9.860;2024-01-11T05:23:31;102634.56;;;-7.91;84.77
84116;BME280;74211;52.234;9.860;2024-01-11T05:26:04;102642.94;;;-7.86;85.07
84116;BME280;74211;52.234;9.860;2024-01-11T05:28:33;102645.47;;;-7.88;84.64
84116;BME280;74211;52.234;9.860;2024-01-11T05:31:03;102651.47;;;-7.93;84.72
84116;BME280;74211;52.234;9.860;2024-01-11T05:33:34;102647.25;;;-7.94;84.84
84116;BME280;74211;52.234;9.860;2024-01-11T05:36:04;102655.59;;;-7.86;84.57
84116;BME280;74211;52.234;9.860;2024-01-11T05:38:35;102644.66;;;-7.90;84.25
84116;BME280;74211;52.234;9.860;2024-01-11T05:41:08;102625.31;;;-7.94;84.31
84116;BME280;74211;52.234;9.860;2024-01-11T05:43:40;102633.63;;;-7.86;84.11
84116;BME280;74211;52.234;9.860;2024-01-11T05:46:10;102599.31;;;-8.05;84.03
84116;BME280;74211;52.234;9.860;2024-01-11T05:48:41;102610.91;;;-7.90;84.24
84116;BME280;74211;52.234;9.860;2024-01-11T05:51:11;102616.00;;;-7.93;83.64
84116;BME280;74211;52.234;9.860;2024-01-11T05:53:41;102617.72;;;-7.95;83.96
84116;BME280;74211;52.234;9.860;2024-01-11T05:56:14;102610.91;;;-7.90;85.62
84116;BME280;74211;52.234;9.860;2024-01-11T05:58:44;102599.25;;;-7.99;84.49
84116;BME280;74211;52.234;9.860;2024-01-11T06:01:14;102599.97;;;-7.94;85.12
84116;BME280;74211;52.234;9.860;2024-01-11T06:03:44;102637.59;;;-7.68;85.17
84116;BME280;74211;52.234;9.860;2024-01-11T06:06:15;102620.75;;;-7.72;85.30
84116;BME280;74211;52.234;9.860;2024-01-11T06:08:46;102619.03;;;-7.70;85.12
84116;BME280;74211;52.234;9.860;2024-01-11T06:11:19;102605.44;;;-7.64;84.47
84116;BME280;74211;52.234;9.860;2024-01-11T06:13:49;102551.97;;;-7.98;84.89
84116;BME280;74211;52.234;9.860;2024-01-11T06:16:19;102578.59;;;-7.76;84.61
84116;BME280;74211;52.234;9.860;2024-01-11T06:18:50;102603.78;;;-7.65;85.38
84116;BME280;74211;52.234;9.860;2024-01-11T06:21:22;102610.34;;;-7.54;85.27
84116;BME280;74211;52.234;9.860;2024-01-11T06:23:53;102615.31;;;-7.49;85.14
84116;BME280;74211;52.234;9.860;2024-01-11T06:26:25;102617.72;;;-7.42;85.04
84116;BME280;74211;52.234;9.860;2024-01-11T06:28:55;102612.72;;;-7.43;84.25
84116;BME280;74211;52.234;9.860;2024-01-11T06:31:28;102575.97;;;-7.70;84.24
84116;BME280;74211;52.234;9.860;2024-01-11T06:33:59;102594.28;;;-7.54;84.13
84116;BME280;74211;52.234;9.860;2024-01-11T06:36:29;102588.44;;;-7.58;83.94
84116;BME280;74211;52.234;9.860;2024-01-11T06:39:00;102584.47;;;-7.74;84.20
84116;BME280;74211;52.234;9.860;2024-01-11T06:41:33;102595.22;;;-7.60;84.63
84116;BME280;74211;52.234;9.860;2024-01-11T06:44:04;102611.09;;;-7.49;84.78
84116;BME280;74211;52.234;9.860;2024-01-11T06:46:34;102595.91;;;-7.50;84.88
84116;BME280;74211;52.234;9.860;2024-01-11T06:49:06;102610.94;;;-7.41;84.46
84116;BME280;74211;52.234;9.860;2024-01-11T06:51:36;102591.75;;;-7.53;85.14
84116;BME280;74211;52.234;9.860;2024-01-11T06:54:07;102619.44;;;-7.42;84.52
84116;BME280;74211;52.234;9.860;2024-01-11T06:56:39;102613.47;;;-7.40;84.31
84116;BME280;74211;52.234;9.860;2024-01-11T06:59:09;102595.16;;;-7.55;84.34
84116;BME280;74211;52.234;9.860;2024-01-11T07:01:40;102572.63;;;-7.72;84.07
84116;BME280;74211;52.234;9.860;2024-01-11T07:04:11;102610.34;;;-7.54;84.54
84116;BME280;74211;52.234;9.860;2024-01-11T07:06:42;102622.13;;;-7.51;85.38
84116;BME280;74211;52.234;9.860;2024-01-11T07:09:12;102598.72;;;-7.67;84.78
84116;BME280;74211;52.234;9.860;2024-01-11T07:11:46;102592.00;;;-7.68;85.04
84116;BME280;74211;52.234;9.860;2024-01-11T07:14:16;102588.59;;;-7.67;85.37
84116;BME280;74211;52.234;9.860;2024-01-11T07:16:46;102592.81;;;-7.66;85.56
84116;BME280;74211;52.234;9.860;2024-01-11T07:19:16;102609.50;;;-7.54;85.42
84116;BME280;74211;52.234;9.860;2024-01-11T07:21:47;102617.06;;;-7.53;85.88
84116;BME280;74211;52.234;9.860;2024-01-11T07:24:17;102629.66;;;-7.47;85.95
84116;BME280;74211;52.234;9.860;2024-01-11T07:26:50;102641.25;;;-7.34;85.51
84116;BME280;74211;52.234;9.860;2024-01-11T07:29:21;102633.66;;;-7.34;85.83
84116;BME280;74211;52.234;9.860;2024-01-11T07:31:51;102635.31;;;-7.32;85.19
84116;BME280;74211;52.234;9.860;2024-01-11T07:34:22;102609.59;;;-7.60;85.21
84116;BME280;74211;52.234;9.860;2024-01-11T07:36:53;102647.13;;;-7.31;85.57
84116;BME280;74211;52.234;9.860;2024-01-11T07:39:24;102655.50;;;-7.26;85.33
84116;BME280;74211;52.234;9.860;2024-01-11T07:42:04;102647.09;;;-7.28;85.10
84116;BME280;74211;52.234;9.860;2024-01-11T07:44:35;102654.78;;;-7.35;85.51
84116;BME280;74211;52.234;9.860;2024-01-11T07:47:05;102645.56;;;-7.40;85.66
84116;BME280;74211;52.234;9.860;2024-01-11T07:49:35;102647.34;;;-7.44;85.68
84116;BME280;74211;52.234;9.860;2024-01-11T07:52:06;102652.47;;;-7.47;85.16
84116;BME280;74211;52.234;9.860;2024-01-11T07:54:36;102687.38;;;-7.13;85.44
84116;BME280;74211;52.234;9.860;2024-01-11T07:57:09;102676.38;;;-7.12;84.91
84116;BME280;74211;52.234;9.860;2024-01-11T07:59:40;102652.81;;;-7.19;85.38
84116;BME280;74211;52.234;9.860;2024-01-11T08:02:10;102660.22;;;-7.05;85.21
84116;BME280;74211;52.234;9.860;2024-01-11T08:04:41;102669.50;;;-7.06;85.41
84116;BME280;74211;52.234;9.860;2024-01-11T08:07:13;102648.66;;;-7.23;85.72
84116;BME280;74211;52.234;9.860;2024-01-11T08:09:43;102675.19;;;-6.93;85.57
84116;BME280;74211;52.234;9.860;2024-01-11T08:12:16;102659.91;;;-6.88;84.92
84116;BME280;74211;52.234;9.860;2024-01-11T08:14:46;102654.84;;;-6.88;85.11
84116;BME280;74211;52.234;9.860;2024-01-11T08:17:17;102649.13;;;-7.01;85.40
84116;BME280;74211;52.234;9.860;2024-01-11T08:19:47;102637.47;;;-7.10;85.14
84116;BME280;74211;52.234;9.860;2024-01-11T08:22:17;102670.72;;;-6.80;85.22
84116;BME280;74211;52.234;9.860;2024-01-11T08:24:53;102660.56;;;-6.79;85.58
84116;BME280;74211;52.234;9.860;2024-01-11T08:27:26;102658.84;;;-6.78;85.50
84116;BME280;74211;52.234;9.860;2024-01-11T08:29:56;102664.72;;;-6.75;85.52
84116;BME280;74211;52.234;9.860;2024-01-11T08:32:27;102669.09;;;-6.40;88.01
84116;BME280;74211;52.234;9.860;2024-01-11T08:34:58;102669.94;;;-5.99;86.16
84116;BME280;74211;52.234;9.860;2024-01-11T08:37:28;102647.84;;;-6.34;84.16
84116;BME280;74211;52.234;9.860;2024-01-11T08:39:59;102665.41;;;-6.25;83.52
84116;BME280;74211;52.234;9.860;2024-01-11T08:42:34;102659.53;;;-6.27;83.99
84116;BME280;74211;52.234;9.860;2024-01-11T08:45:05;102659.50;;;-6.25;84.41
84116;BME280;74211;52.234;9.860;2024-01-11T08:47:39;102654.41;;;-6.25;83.95
84116;BME280;74211;52.234;9.860;2024-01-11T08:50:12;102648.19;;;-6.11;84.55
84116;BME280;74211;52.234;9.860;2024-01-11T08:52:45;102649.00;;;-6.10;84.11
84116;BME280;74211;52.234;9.860;2024-01-11T08:55:15;102654.09;;;-6.10;84.16
84116;BME280;74211;52.234;9.860;2024-01-11T08:57:48;102661.56;;;-6.03;84.15
84116;BME280;74211;52.234;9.860;2024-01-11T09:00:19;102636.28;;;-6.09;84.53
84116;BME280;74211;52.234;9.860;2024-01-11T09:02:49;102675.44;;;-5.80;84.12
84116;BME280;74211;52.234;9.860;2024-01-11T09:05:20;102672.72;;;-5.74;83.92
84116;BME280;74211;52.234;9.860;2024-01-11T09:07:50;102648.38;;;-5.83;83.98
84116;BME280;74211;52.234;9.860;2024-01-11T09:10:20;102670.78;;;-5.63;84.02
84116;BME280;74211;52.234;9.860;2024-01-11T09:12:53;102640.72;;;-5.81;83.72
84116;BME280;74211;52.234;9.860;2024-01-11T09:15:24;102664.84;;;-5.62;82.88
84116;BME280;74211;52.234;9.860;2024-01-11T09:17:54;102656.13;;;-5.52;82.74
84116;BME280;74211;52.234;9.860;2024-01-11T09:20:24;102650.88;;;-5.44;83.39
84116;BME280;74211;52.234;9.860;2024-01-11T09:22:55;102657.31;;;-5.31;83.02
84116;BME280;74211;52.234;9.860;2024-01-11T09:25:25;102664.25;;;-5.38;82.83
84116;BME280;74211;52.234;9.860;2024-01-11T09:27:58;102661.53;;;-5.30;82.70
84116;BME280;74211;52.234;9.860;2024-01-11T09:30:29;102662.19;;;-5.22;82.34
84116;BME280;74211;52.234;9.860;2024-01-11T09:32:59;102689.88;;;-5.11;82.05
84116;BME280;74211;52.234;9.860;2024-01-11T09:35:29;102696.56;;;-5.07;82.33
84116;BME280;74211;52.234;9.860;2024-01-11T09:38:00;102701.38;;;-4.97;82.00
84116;BME280;74211;52.234;9.860;2024-01-11T09:40:31;102694.94;;;-4.77;81.34
84116;BME280;74211;52.234;9.860;2024-01-11T09:43:04;102688.66;;;-4.64;81.62
84116;BME280;74211;52.234;9.860;2024-01-11T09:45:37;102700.38;;;-4.59;81.88
84116;BME280;74211;52.234;9.860;2024-01-11T09:48:09;102683.19;;;-4.50;81.25
84116;BME280;74211;52.234;9.860;2024-01-11T09:50:40;102633.63;;;-4.68;80.91
84116;BME280;74211;52.234;9.860;2024-01-11T09:53:10;102670.88;;;-4.35;82.14
84116;BME280;74211;52.234;9.860;2024-01-11T09:55:41;102674.84;;;-4.56;82.66
84116;BME280;74211;52.234;9.860;2024-01-11T09:58:14;102660.72;;;-4.36;82.48
84116;BME280;74211;52.234;9.860;2024-01-11T10:00:45;102657.44;;;-4.10;82.40
84116;BME280;74211;52.234;9.860;2024-01-11T10:03:16;102657.44;;;-4.10;82.53
84116;BME280;74211;52.234;9.860;2024-01-11T10:05:49;102664.56;;;-3.94;82.62
84116;BME280;74211;52.234;9.860;2024-01-11T10:08:21;102663.44;;;-3.85;82.79
84116;BME280;74211;52.234;9.860;2024-01-11T10:10:51;102630.81;;;-4.02;82.66
84116;BME280;74211;52.234;9.860;2024-01-11T10:13:28;102657.31;;;-4.07;83.64
84116;BME280;74211;52.234;9.860;2024-01-11T10:16:05;102645.88;;;-3.94;84.58
84116;BME280;74211;52.234;9.860;2024-01-11T10:18:37;102652.03;;;-3.73;84.39
84116;BME280;74211;52.234;9.860;2024-01-11T10:21:08;102644.34;;;-3.72;84.37
84116;BME280;74211;52.234;9.860;2024-01-11T10:23:38;102637.72;;;-3.77;84.38
84116;BME280;74211;52.234;9.860;2024-01-11T10:26:11;102638.28;;;-3.69;84.44
84116;BME280;74211;52.234;9.860;2024-01-11T10:28:45;102631.25;;;-3.61;84.34
84116;BME280;74211;52.234;9.860;2024-01-11T10:31:15;102596.75;;;-3.99;85.31
84116;BME280;74211;52.234;9.860;2024-01-11T10:33:45;102645.81;;;-3.65;85.84
84116;BME280;74211;52.234;9.860;2024-01-11T10:36:17;102612.13;;;-3.74;86.22
84116;BME280;74211;52.234;9.860;2024-01-11T10:38:47;102634.66;;;-3.89;86.59
84116;BME280;74211;52.234;9.860;2024-01-11T10:41:18;102629.56;;;-3.89;87.10
84116;BME280;74211;52.234;9.860;2024-01-11T10:43:53;102640.09;;;-3.71;87.01
84116;BME280;74211;52.234;9.860;2024-01-11T10:46:26;102647.91;;;-3.51;86.91
84116;BME280;74211;52.234;9.860;2024-01-11T10:48:59;102621.03;;;-3.61;86.62
84116;BME280;74211;52.234;9.860;2024-01-11T10:51:33;102638.34;;;-3.44;85.84
84116;BME280;74211;52.234;9.860;2024-01-11T10:54:04;102650.09;;;-3.39;86.20
84116;BME280;74211;52.234;9.860;2024-01-11T10:56:35;102652.72;;;-3.42;86.80
84116;BME280;74211;52.234;9.860;2024-01-11T10:59:11;102651.38;;;-3.27;86.10
84116;BME280;74211;52.234;9.860;2024-01-11T11:01:43;102664.72;;;-3.19;86.11
84116;BME280;74211;52.234;9.860;2024-01-11T11:04:15;102653.16;;;-3.29;86.92
84116;BME280;74211;52.234;9.860;2024-01-11T11:06:46;102640.97;;;-3.21;86.78
84116;BME280;74211;52.234;9.860;2024-01-11T11:09:17;102640.41;;;-3.04;86.41
84116;BME280;74211;52.234;9.860;2024-01-11T11:11:49;102614.78;;;-3.01;86.75
84116;BME280;74211;52.234;9.860;2024-01-11T11:14:22;102606.16;;;-3.22;86.74
84116;BME280;74211;52.234;9.860;2024-01-11T11:16:54;102640.31;;;-2.78;86.32
84116;BME280;74211;52.234;9.860;2024-01-11T11:19:24;102635.56;;;-2.87;86.53
84116;BME280;74211;52.234;9.860;2024-01-11T11:21:55;102649.19;;;-2.63;85.99
84116;BME280;74211;52.234;9.860;2024-01-11T11:24:25;102632.25;;;-2.66;86.12
84116;BME280;74211;52.234;9.860;2024-01-11T11:26:55;102647.78;;;-2.72;86.86
84116;BME280;74211;52.234;9.860;2024-01-11T11:29:29;102652.22;;;-2.30;86.01
84116;BME280;74211;52.234;9.860;2024-01-11T11:31:59;102632.75;;;-2.11;85.85
84116;BME280;74211;52.234;9.860;2024-01-11T11:34:43;102604.75;;;-2.14;84.88
84116;BME280;74211;52.234;9.860;2024-01-11T11:37:22;102632.53;;;-2.05;85.30
84116;BME280;74211;52.234;9.860;2024-01-11T11:39:52;102622.66;;;-2.14;85.73
84116;BME280;74211;52.234;9.860;2024-01-11T11:42:24;102611.47;;;-2.12;85.88
84116;BME280;74211;52.234;9.860;2024-01-11T11:44:58;102593.28;;;-2.26;85.18
84116;BME280;74211;52.234;9.860;2024-01-11T11:47:34;102591.78;;;-2.10;85.83
84116;BME280;74211;52.234;9.860;2024-01-11T11:50:07;102594.59;;;-2.16;85.24
84116;BME280;74211;52.234;9.860;2024-01-11T11:52:39;102591.50;;;-2.24;86.73
84116;BME280;74211;52.234;9.860;2024-01-11T11:55:11;102592.56;;;-2.29;86.94
84116;BME280;74211;52.234;9.860;2024-01-11T11:57:45;102533.06;;;-2.55;87.50
84116;BME280;74211;52.234;9.860;2024-01-11T12:00:19;102569.69;;;-2.32;87.74
84116;BME280;74211;52.234;9.860;2024-01-11T12:02:50;102573.19;;;-2.13;88.06
84116;BME280;74211;52.234;9.860;2024-01-11T12:05:22;102567.59;;;-2.01;88.48
84116;BME280;74211;52.234;9.860;2024-01-11T12:07:53;102572.47;;;-1.95;88.81
84116;BME280;74211;52.234;9.860;2024-01-11T12:10:23;102538.06;;;-2.08;88.38
84116;BME280;74211;52.234;9.860;2024-01-11T12:12:54;102567.88;;;-1.87;88.33
84116;BME280;74211;52.234;9.860;2024-01-11T12:15:29;102529.22;;;-2.01;88.74
84116;BME280;74211;52.234;9.860;2024-01-11T12:17:59;102543.25;;;-1.89;89.26
84116;BME280;74211;52.234;9.860;2024-01-11T12:20:30;102530.94;;;-2.01;89.13
84116;BME280;74211;52.234;9.860;2024-01-11T12:23:00;102556.44;;;-1.78;89.47
84116;BME280;74211;52.234;9.860;2024-01-11T12:25:30;102538.53;;;-1.78;88.73
84116;BME280;74211;52.234;9.860;2024-01-11T12:28:00;102492.22;;;-2.13;88.72
84116;BME280;74211;52.234;9.860;2024-01-11T12:30:33;102540.31;;;-1.80;89.12
84116;BME280;74211;52.234;9.860;2024-01-11T12:33:04;102518.66;;;-1.71;89.16
84116;BME280;74211;52.234;9.860;2024-01-11T12:35:35;102530.69;;;-1.73;88.96
84116;BME280;74211;52.234;9.860;2024-01-11T12:38:06;102534.00;;;-1.71;89.03
84116;BME280;74211;52.234;9.860;2024-01-11T12:40:38;102552.53;;;-1.66;89.04
84116;BME280;74211;52.234;9.860;2024-01-11T12:43:08;102541.63;;;-1.70;89.47
84116;BME280;74211;52.234;9.860;2024-01-11T12:45:41;102548.00;;;-1.60;88.87
84116;BME280;74211;52.234;9.860;2024-01-11T12:48:11;102556.75;;;-1.65;89.56
84116;BME280;74211;52.234;9.860;2024-01-11T12:50:44;102553.19;;;-1.61;89.51
84116;BME280;74211;52.234;9.860;2024-01-11T12:53:14;102552.75;;;-1.51;89.79
84116;BME280;74211;52.234;9.860;2024-01-11T12:55:49;102522.16;;;-1.54;89.40
84116;BME280;74211;52.234;9.860;2024-01-11T12:58:32;102523.44;;;-1.64;89.30
84116;BME280;74211;52.234;9.860;2024-01-11T13:01:05;102512.19;;;-1.60;89.18
84116;BME280;74211;52.234;9.860;2024-01-11T13:03:39;102548.28;;;-1.27;89.08
84116;BME280;74211;52.234;9.860;2024-01-11T13:06:09;102538.75;;;-1.23;88.98
84116;BME280;74211;52.234;9.860;2024-01-11T13:08:41;102532.03;;;-1.26;89.47
84116;BME280;74211;52.234;9.860;2024-01-11T13:11:12;102543.41;;;-1.31;89.38
84116;BME280;74211;52.234;9.860;2024-01-11T13:13:44;102534.59;;;-1.26;89.64
84116;BME280;74211;52.234;9.860;2024-01-11T13:16:19;102530.38;;;-1.27;89.73
84116;BME280;74211;52.234;9.860;2024-01-11T13:18:49;102533.44;;;-1.19;89.88